createdAt,value
2018-11-20T00:04:41.033Z,2.40
2018-11-20T00:08:54.428Z,2.40
2018-11-20T00:13:07.943Z,2.30
2018-11-20T00:17:29.400Z,2.30
2018-11-20T00:21:43.069Z,2.30
2018-11-20T00:25:56.666Z,2.30
2018-11-20T00:30:10.081Z,2.30
2018-11-20T00:34:29.457Z,2.30
2018-11-20T00:38:42.912Z,2.30
2018-11-20T00:42:57.318Z,2.30
2018-11-20T00:48:09.045Z,2.30
2018-11-20T00:52:22.696Z,2.30
2018-11-20T00:56:37.226Z,2.30
2018-11-20T01:00:50.456Z,2.30
2018-11-20T01:05:34.047Z,2.30
2018-11-20T01:09:49.510Z,2.30
2018-11-20T01:15:04.580Z,2.30
2018-11-20T01:19:25.793Z,2.20
2018-11-20T01:23:42.130Z,2.20
2018-11-20T01:27:54.537Z,2.20
2018-11-20T01:32:07.876Z,2.20
2018-11-20T01:38:27.188Z,2.20
2018-11-20T01:42:40.894Z,2.20
2018-11-20T01:46:54.510Z,2.10
2018-11-20T01:51:07.994Z,2.10
2018-11-20T01:55:21.624Z,2.10
2018-11-20T01:59:35.892Z,2.10
2018-11-20T02:03:48.317Z,2.10
2018-11-20T02:08:21.813Z,2.10
2018-11-20T02:12:35.274Z,2.10
2018-11-20T02:16:52.353Z,2.00
2018-11-20T02:21:06.015Z,2.00
2018-11-20T02:25:38.464Z,2.00
2018-11-20T02:29:52.776Z,2.00
2018-11-20T02:34:07.121Z,2.00
2018-11-20T02:38:20.559Z,2.00
2018-11-20T02:42:41.209Z,2.00
2018-11-20T02:46:54.854Z,2.00
2018-11-20T02:51:09.318Z,2.00
2018-11-20T02:55:22.864Z,2.00
2018-11-20T02:59:45.323Z,2.00
2018-11-20T03:03:58.710Z,2.00
2018-11-20T03:08:14.988Z,2.00
2018-11-20T03:12:32.276Z,2.00
2018-11-20T03:17:44.095Z,2.00
2018-11-20T03:22:02.512Z,2.00
2018-11-20T03:27:17.428Z,1.90
2018-11-20T03:31:31.758Z,2.00
2018-11-20T03:35:50.063Z,1.90
2018-11-20T03:42:05.623Z,1.90
2018-11-20T03:46:19.215Z,1.90
2018-11-20T03:50:34.643Z,1.80
2018-11-20T03:54:48.884Z,1.80
2018-11-20T03:59:09.148Z,1.80
2018-11-20T04:03:21.539Z,1.90
2018-11-20T04:07:34.936Z,1.90
2018-11-20T04:11:53.311Z,1.90
2018-11-20T04:16:05.747Z,1.80
2018-11-20T04:20:19.168Z,1.80
2018-11-20T04:24:32.787Z,1.80
2018-11-20T04:28:45.176Z,1.80
2018-11-20T04:33:11.017Z,1.80
2018-11-20T04:37:24.854Z,1.80
2018-11-20T04:41:38.240Z,1.70
2018-11-20T04:45:51.904Z,1.70
2018-11-20T04:50:04.331Z,1.70
2018-11-20T04:56:22.559Z,1.70
2018-11-20T05:00:40.965Z,1.70
2018-11-20T05:04:57.259Z,1.60
2018-11-20T05:09:24.747Z,1.60
2018-11-20T05:13:38.511Z,1.60
2018-11-20T05:17:51.951Z,1.60
2018-11-20T05:22:09.171Z,1.60
2018-11-20T05:26:21.544Z,1.60
2018-11-20T05:30:44.979Z,1.70
2018-11-20T05:34:58.425Z,1.70
2018-11-20T05:39:14.631Z,1.60
2018-11-20T05:43:27.760Z,1.60
2018-11-20T05:47:55.043Z,1.70
2018-11-20T05:52:08.306Z,1.70
2018-11-20T05:56:39.695Z,1.70
2018-11-20T06:00:53.204Z,1.70
2018-11-20T06:06:04.236Z,1.70
2018-11-20T06:10:24.388Z,1.70
2018-11-20T06:14:55.795Z,1.60
2018-11-20T06:19:14.112Z,1.60
2018-11-20T06:23:26.483Z,1.60
2018-11-20T06:27:40.067Z,1.60
2018-11-20T06:31:56.196Z,1.70
2018-11-20T06:36:21.648Z,1.70
2018-11-20T06:41:08.265Z,1.70
2018-11-20T06:45:24.380Z,1.70
2018-11-20T06:49:36.747Z,1.60
2018-11-20T06:53:50.033Z,1.70
2018-11-20T06:58:02.407Z,1.70
2018-11-20T07:03:19.456Z,1.70
2018-11-20T07:07:37.113Z,1.70
2018-11-20T07:11:50.477Z,1.70
2018-11-20T07:16:15.621Z,1.70
2018-11-20T07:20:35.056Z,1.70
2018-11-20T07:24:49.360Z,1.70
2018-11-20T07:31:05.017Z,1.70
2018-11-20T07:35:17.316Z,1.70
2018-11-20T07:39:39.772Z,1.70
2018-11-20T07:44:51.912Z,1.70
2018-11-20T07:51:07.720Z,1.70
2018-11-20T07:55:21.146Z,1.70
2018-11-20T07:59:38.339Z,1.70
2018-11-20T08:03:56.823Z,1.70
2018-11-20T08:08:11.313Z,1.80
2018-11-20T08:12:24.948Z,1.80
2018-11-20T08:16:44.473Z,1.90
2018-11-20T08:20:59.770Z,1.90
2018-11-20T08:25:32.327Z,1.90
2018-11-20T08:29:45.462Z,2.00
2018-11-20T08:33:59.592Z,2.00
2018-11-20T08:38:15.876Z,2.10
2018-11-20T08:42:28.278Z,2.10
2018-11-20T08:46:43.619Z,2.10
2018-11-20T08:50:55.984Z,2.10
2018-11-20T08:56:09.165Z,2.10
2018-11-20T09:00:21.560Z,2.20
2018-11-20T09:05:05.319Z,2.20
2018-11-20T09:09:18.936Z,2.20
2018-11-20T09:13:33.136Z,2.20
2018-11-20T09:17:46.588Z,2.20
2018-11-20T09:24:06.142Z,2.30
2018-11-20T09:28:19.648Z,2.30
2018-11-20T09:32:33.224Z,2.30
2018-11-20T09:36:45.620Z,2.40
2018-11-20T09:41:02.951Z,2.40
2018-11-20T09:47:28.556Z,2.50
2018-11-20T09:51:41.708Z,2.50
2018-11-20T09:56:03.059Z,2.40
2018-11-20T10:00:16.555Z,2.60
2018-11-20T10:05:30.939Z,2.60
2018-11-20T10:09:43.439Z,2.70
2018-11-20T10:14:01.835Z,2.70
2018-11-20T10:18:24.142Z,2.80
2018-11-20T10:22:37.654Z,2.80
2018-11-20T10:26:51.067Z,2.80
2018-11-20T10:31:10.423Z,2.80
2018-11-20T10:35:24.874Z,2.90
2018-11-20T10:39:40.215Z,3.00
2018-11-20T10:43:53.772Z,2.90
2018-11-20T10:48:14.929Z,2.90
2018-11-20T10:52:47.563Z,2.90
2018-11-20T10:57:04.007Z,3.00
2018-11-20T11:01:17.571Z,3.00
2018-11-20T11:05:32.351Z,3.10
2018-11-20T11:09:49.824Z,3.10
2018-11-20T11:14:07.067Z,3.20
2018-11-20T11:18:23.554Z,3.30
2018-11-20T11:23:09.923Z,3.40
2018-11-20T11:27:23.673Z,3.40
2018-11-20T11:32:36.825Z,3.30
2018-11-20T11:36:49.174Z,3.40
2018-11-20T11:41:02.932Z,3.40
2018-11-20T11:45:16.470Z,3.60
2018-11-20T11:49:44.513Z,3.60
2018-11-20T11:54:00.011Z,3.60
2018-11-20T12:00:16.109Z,3.60
